createdAt,value
2018-02-19T00:01:26.210Z,39.93
2018-02-19T00:03:52.990Z,27.87
2018-02-19T00:06:19.753Z,26.50
2018-02-19T00:08:46.509Z,19.00
2018-02-19T00:11:13.271Z,17.93
2018-02-19T00:13:40.052Z,17.73
2018-02-19T00:16:07.469Z,19.80
2018-02-19T00:18:34.240Z,19.03
2018-02-19T00:21:01.013Z,16.17
2018-02-19T00:23:28.103Z,20.63
2018-02-19T00:25:54.901Z,23.27
2018-02-19T00:28:21.680Z,19.20
2018-02-19T00:30:48.469Z,37.83
2018-02-19T00:33:15.247Z,21.90
2018-02-19T00:35:42.025Z,19.80
2018-02-19T00:38:08.869Z,20.90
2018-02-19T00:40:35.646Z,24.60
2018-02-19T00:43:02.418Z,25.60
2018-02-19T00:45:29.180Z,16.30
2018-02-19T00:47:55.934Z,19.77
2018-02-19T00:50:22.745Z,18.30
2018-02-19T00:52:49.499Z,19.77
2018-02-19T00:55:16.258Z,16.40
2018-02-19T00:57:43.013Z,22.07
2018-02-19T01:00:09.791Z,12.67
2018-02-19T01:02:36.616Z,19.10
2018-02-19T01:05:03.401Z,22.40
2018-02-19T01:07:30.162Z,22.70
2018-02-19T01:09:56.931Z,27.00
2018-02-19T01:12:23.687Z,22.13
2018-02-19T01:14:50.503Z,17.52
2018-02-19T01:17:17.294Z,23.00
2018-02-19T01:19:44.122Z,26.10
2018-02-19T01:22:10.881Z,17.77
2018-02-19T01:24:37.638Z,20.23
2018-02-19T01:27:05.017Z,23.23
2018-02-19T01:29:31.771Z,25.13
2018-02-19T01:31:58.535Z,23.20
2018-02-19T01:34:25.321Z,27.52
2018-02-19T01:36:52.078Z,24.17
2018-02-19T01:39:18.897Z,21.20
2018-02-19T01:41:45.650Z,23.70
2018-02-19T01:44:13.253Z,20.57
2018-02-19T01:46:40.002Z,24.87
2018-02-19T01:49:06.752Z,20.10
2018-02-19T01:51:33.572Z,15.37
2018-02-19T01:54:00.326Z,20.07
2018-02-19T01:56:27.815Z,20.93
2018-02-19T01:58:54.572Z,21.60
2018-02-19T02:01:21.336Z,18.37
2018-02-19T02:03:48.125Z,23.20
2018-02-19T02:06:14.890Z,29.00
2018-02-19T02:08:41.653Z,28.07
2018-02-19T02:11:08.398Z,23.63
2018-02-19T02:13:35.178Z,25.63
2018-02-19T02:16:01.993Z,23.42
2018-02-19T02:18:28.750Z,22.30
2018-02-19T02:20:55.536Z,23.98
2018-02-19T02:23:23.247Z,20.83
2018-02-19T02:25:49.998Z,27.57
2018-02-19T02:28:16.811Z,24.90
2018-02-19T02:30:43.558Z,23.83
2018-02-19T02:33:10.334Z,24.00
2018-02-19T02:35:37.094Z,25.20
2018-02-19T02:38:04.658Z,26.30
2018-02-19T02:40:31.441Z,26.60
2018-02-19T02:42:58.182Z,23.80
2018-02-19T02:45:24.976Z,27.23
2018-02-19T02:47:51.754Z,26.03
2018-02-19T02:50:18.513Z,20.90
2018-02-19T02:52:45.304Z,24.93
2018-02-19T02:55:12.065Z,24.17
2018-02-19T02:57:38.811Z,20.87
2018-02-19T03:00:05.579Z,25.87
2018-02-19T03:02:32.386Z,21.87
2018-02-19T03:04:59.183Z,20.97
2018-02-19T03:07:25.946Z,25.07
2018-02-19T03:09:52.722Z,20.10
2018-02-19T03:12:19.497Z,26.53
2018-02-19T03:14:46.319Z,16.37
2018-02-19T03:17:13.116Z,27.37
2018-02-19T03:19:39.920Z,24.40
2018-02-19T03:22:06.679Z,34.07
2018-02-19T03:24:33.460Z,22.50
2018-02-19T03:27:00.219Z,28.23
2018-02-19T03:29:27.065Z,30.50
2018-02-19T03:31:53.818Z,27.83
2018-02-19T03:34:20.603Z,21.80
2018-02-19T03:36:47.363Z,22.27
2018-02-19T03:39:14.137Z,25.60
2018-02-19T03:41:40.932Z,29.17
2018-02-19T03:44:07.683Z,28.03
2018-02-19T03:46:34.453Z,27.03
2018-02-19T03:49:01.251Z,29.40
2018-02-19T03:51:28.014Z,26.90
2018-02-19T03:53:54.969Z,22.17
2018-02-19T03:56:21.721Z,35.20
2018-02-19T03:58:48.488Z,23.63
2018-02-19T04:01:15.246Z,25.77
2018-02-19T04:03:42.001Z,23.90
2018-02-19T04:06:08.814Z,25.67
2018-02-19T04:08:35.601Z,29.23
2018-02-19T04:11:02.386Z,27.95
2018-02-19T04:13:29.158Z,24.27
2018-02-19T04:15:55.914Z,32.37
2018-02-19T04:18:22.695Z,25.57
2018-02-19T04:20:49.474Z,22.43
2018-02-19T04:23:16.252Z,31.40
2018-02-19T04:25:43.025Z,35.77
2018-02-19T04:28:09.808Z,26.20
2018-02-19T04:30:36.623Z,24.03
2018-02-19T04:33:03.381Z,23.63
2018-02-19T04:35:30.809Z,20.33
2018-02-19T04:37:57.599Z,39.93
2018-02-19T04:40:24.980Z,27.05
2018-02-19T04:43:08.299Z,27.47
2018-02-19T04:45:37.868Z,32.47
2018-02-19T04:48:04.683Z,31.30
2018-02-19T04:50:31.461Z,20.47
2018-02-19T04:52:58.211Z,33.10
2018-02-19T04:55:25.000Z,28.40
2018-02-19T04:57:51.783Z,25.13
2018-02-19T05:00:18.550Z,31.53
2018-02-19T05:02:45.525Z,32.20
2018-02-19T05:05:12.278Z,29.57
2018-02-19T05:07:39.071Z,32.47
2018-02-19T05:10:05.826Z,34.60
2018-02-19T05:12:32.571Z,30.27
2018-02-19T05:14:59.309Z,39.63
2018-02-19T05:17:26.072Z,24.43
2018-02-19T05:19:52.905Z,26.77
2018-02-19T05:22:19.654Z,26.47
2018-02-19T05:24:46.425Z,32.83
2018-02-19T05:27:13.227Z,28.30
2018-02-19T05:29:40.012Z,40.23
2018-02-19T05:32:06.823Z,26.17
2018-02-19T05:34:33.589Z,26.47
2018-02-19T05:37:00.341Z,30.00
2018-02-19T05:39:27.312Z,27.90
2018-02-19T05:41:54.389Z,31.03
2018-02-19T05:44:21.222Z,25.13
2018-02-19T05:46:47.990Z,36.00
2018-02-19T05:49:14.807Z,40.00
2018-02-19T05:51:41.569Z,34.97
2018-02-19T05:54:08.373Z,31.20
2018-02-19T05:56:35.169Z,32.20
2018-02-19T05:59:01.957Z,23.77
2018-02-19T06:01:29.008Z,25.80
2018-02-19T06:03:56.486Z,23.47
2018-02-19T06:06:23.255Z,27.93
2018-02-19T06:08:50.060Z,46.55
2018-02-19T06:11:16.826Z,30.83
2018-02-19T06:13:43.602Z,26.83
2018-02-19T06:16:10.347Z,33.13
2018-02-19T06:18:37.114Z,35.53
2018-02-19T06:21:03.971Z,27.73
2018-02-19T06:23:30.731Z,23.30
2018-02-19T06:25:57.512Z,26.10
2018-02-19T06:28:24.298Z,39.47
2018-02-19T06:30:51.080Z,30.73
2018-02-19T06:33:17.885Z,46.23
2018-02-19T06:35:44.654Z,36.23
2018-02-19T06:38:11.422Z,30.10
2018-02-19T06:40:38.232Z,30.90
2018-02-19T06:43:05.013Z,29.10
2018-02-19T06:45:31.768Z,31.63
2018-02-19T06:47:58.613Z,40.10
2018-02-19T06:50:25.362Z,38.20
2018-02-19T06:52:52.887Z,32.03
2018-02-19T06:55:19.697Z,31.77
2018-02-19T06:57:46.494Z,34.57
2018-02-19T07:00:13.337Z,39.63
2018-02-19T07:02:41.017Z,38.00
2018-02-19T07:05:07.789Z,31.70
2018-02-19T07:07:34.636Z,27.73
2018-02-19T07:10:01.409Z,27.20
2018-02-19T07:12:28.197Z,31.37
2018-02-19T07:14:54.979Z,37.27
2018-02-19T07:17:21.781Z,35.43
2018-02-19T07:19:48.550Z,29.50
2018-02-19T07:22:15.330Z,39.55
2018-02-19T07:24:42.077Z,35.63
2018-02-19T07:27:08.822Z,33.40
2018-02-19T07:29:35.605Z,27.67
2018-02-19T07:32:02.359Z,34.50
2018-02-19T07:34:29.741Z,35.80
2018-02-19T07:36:57.110Z,32.20
2018-02-19T07:39:24.482Z,36.60
2018-02-19T07:41:51.247Z,32.10
2018-02-19T07:44:18.103Z,27.53
2018-02-19T07:46:45.209Z,35.10
2018-02-19T07:49:13.128Z,31.70
2018-02-19T07:51:39.916Z,37.60
2018-02-19T07:54:06.679Z,36.57
2018-02-19T07:56:33.463Z,34.80
2018-02-19T07:59:00.218Z,47.90
2018-02-19T08:01:26.988Z,34.77
2018-02-19T08:03:53.772Z,32.63
2018-02-19T08:06:20.546Z,35.53
2018-02-19T08:08:47.358Z,31.90
2018-02-19T08:11:14.110Z,32.43
2018-02-19T08:13:40.859Z,28.93
2018-02-19T08:16:07.630Z,39.13
2018-02-19T08:18:34.383Z,37.40
2018-02-19T08:21:01.189Z,37.97
2018-02-19T08:23:28.566Z,32.20
2018-02-19T08:25:55.341Z,28.97
2018-02-19T08:28:22.090Z,32.40
2018-02-19T08:30:48.862Z,34.40
2018-02-19T08:33:15.658Z,36.10
2018-02-19T08:35:42.431Z,26.27
2018-02-19T08:38:09.193Z,35.80
2018-02-19T08:40:35.950Z,41.67
2018-02-19T08:43:02.717Z,40.23
2018-02-19T08:45:29.503Z,48.17
2018-02-19T08:47:56.404Z,32.80
2018-02-19T08:50:23.362Z,37.90
2018-02-19T08:52:50.121Z,43.17
2018-02-19T08:55:16.897Z,41.33
2018-02-19T08:57:43.709Z,41.13
2018-02-19T09:00:11.078Z,32.67
2018-02-19T09:02:38.018Z,32.57
2018-02-19T09:05:04.893Z,43.60
2018-02-19T09:07:31.646Z,39.60
2018-02-19T09:09:58.866Z,42.90
2018-02-19T09:12:25.620Z,36.37
2018-02-19T09:14:52.372Z,42.17
2018-02-19T09:17:19.150Z,46.83
2018-02-19T09:19:45.930Z,41.37
2018-02-19T09:22:12.734Z,46.57
2018-02-19T09:24:39.510Z,44.07
2018-02-19T09:27:06.332Z,41.53
2018-02-19T09:29:33.075Z,38.10
2018-02-19T09:31:59.835Z,44.90
2018-02-19T09:34:27.098Z,49.53
2018-02-19T09:36:53.845Z,42.63
2018-02-19T09:39:20.596Z,47.83
2018-02-19T09:41:47.369Z,50.27
2018-02-19T09:44:14.336Z,60.07
2018-02-19T09:46:41.123Z,58.40
2018-02-19T09:49:07.963Z,60.50
2018-02-19T09:51:34.704Z,54.93
2018-02-19T09:54:01.467Z,54.40
2018-02-19T09:56:28.237Z,49.60
2018-02-19T09:58:55.029Z,51.33
2018-02-19T10:01:21.783Z,59.83
2018-02-19T10:03:48.552Z,49.13
2018-02-19T10:06:15.359Z,55.87
2018-02-19T10:08:42.236Z,57.17
2018-02-19T10:11:09.056Z,53.53
2018-02-19T10:13:35.842Z,55.33
2018-02-19T10:16:02.631Z,53.67
2018-02-19T10:18:29.776Z,52.03
2018-02-19T10:20:56.558Z,48.43
2018-02-19T10:23:23.520Z,53.73
2018-02-19T10:25:50.278Z,49.13
2018-02-19T10:28:17.019Z,54.97
2018-02-19T10:30:43.767Z,58.00
2018-02-19T10:46:06.322Z,56.27
2018-02-19T10:48:33.097Z,55.87
2018-02-19T10:50:59.876Z,58.10
2018-02-19T10:53:26.660Z,52.53
2018-02-19T10:55:53.428Z,45.07
2018-02-19T10:58:20.175Z,65.27
2018-02-19T11:00:46.943Z,53.97
2018-02-19T11:03:13.719Z,65.87
2018-02-19T11:05:40.495Z,52.97
2018-02-19T11:08:07.270Z,53.50
2018-02-19T11:10:34.038Z,50.37
2018-02-19T11:13:00.802Z,61.57
2018-02-19T11:15:27.622Z,58.30
2018-02-19T11:17:54.398Z,54.93
2018-02-19T11:20:21.336Z,53.80
2018-02-19T11:22:48.087Z,56.77
2018-02-19T11:25:14.852Z,52.00
2018-02-19T11:27:41.642Z,45.17
2018-02-19T11:30:08.419Z,56.87
2018-02-19T11:32:35.175Z,50.53
2018-02-19T11:35:02.024Z,62.67
2018-02-19T11:37:28.791Z,53.53
2018-02-19T11:39:55.631Z,48.57
2018-02-19T11:42:22.390Z,57.07
2018-02-19T11:44:49.153Z,52.30
2018-02-19T11:47:15.922Z,70.57
2018-02-19T11:49:42.699Z,52.30
2018-02-19T11:52:09.528Z,49.23
2018-02-19T11:54:36.301Z,62.37
2018-02-19T11:57:03.070Z,51.50
2018-02-19T11:59:29.840Z,44.57
2018-02-19T12:01:56.602Z,51.33
2018-02-19T12:04:24.132Z,36.27
2018-02-19T12:06:50.906Z,47.27
2018-02-19T12:09:17.695Z,42.90
2018-02-19T12:11:44.487Z,49.13
2018-02-19T12:14:11.242Z,52.23
2018-02-19T12:16:38.039Z,46.17
2018-02-19T12:19:04.797Z,42.67
2018-02-19T12:21:31.550Z,59.27
2018-02-19T12:23:59.088Z,57.97
2018-02-19T12:26:25.869Z,50.30
2018-02-19T12:28:52.679Z,58.03
2018-02-19T12:31:20.961Z,63.30
2018-02-19T12:33:47.796Z,87.97
2018-02-19T12:36:14.556Z,59.47
2018-02-19T12:38:41.518Z,43.57
2018-02-19T12:41:08.303Z,43.20
2018-02-19T12:43:35.414Z,48.43
2018-02-19T12:46:02.166Z,56.83
2018-02-19T12:48:28.922Z,55.37
2018-02-19T12:50:55.713Z,52.83
2018-02-19T12:53:22.517Z,50.60
2018-02-19T12:55:49.284Z,54.87
2018-02-19T12:58:16.039Z,50.20
2018-02-19T13:00:42.791Z,58.33
2018-02-19T13:03:09.559Z,44.93
2018-02-19T13:05:36.367Z,50.40
2018-02-19T13:08:03.114Z,61.30
2018-02-19T13:10:29.865Z,48.87
2018-02-19T13:12:56.620Z,48.80
2018-02-19T13:15:23.374Z,53.07
2018-02-19T13:17:50.185Z,49.90
2018-02-19T13:20:16.934Z,61.27
2018-02-19T13:22:44.302Z,46.73
2018-02-19T13:25:11.071Z,55.30
2018-02-19T13:27:37.858Z,48.60
2018-02-19T13:30:04.693Z,61.30
2018-02-19T13:32:32.495Z,44.40
2018-02-19T13:34:59.277Z,45.33
2018-02-19T13:37:26.049Z,58.50
2018-02-19T13:39:52.822Z,71.57
2018-02-19T13:42:19.643Z,55.70
2018-02-19T13:44:46.414Z,50.33
2018-02-19T13:47:13.221Z,53.23
2018-02-19T13:49:39.966Z,51.37
2018-02-19T13:52:06.746Z,47.87
2018-02-19T13:54:33.566Z,46.90
2018-02-19T13:57:00.310Z,52.10
2018-02-19T13:59:27.073Z,48.90
2018-02-19T14:01:53.863Z,55.00
2018-02-19T14:04:20.643Z,47.27
2018-02-19T14:06:47.483Z,53.37
2018-02-19T14:09:14.236Z,48.43
2018-02-19T14:11:41.032Z,45.73
2018-02-19T14:14:07.784Z,49.47
2018-02-19T14:16:34.553Z,56.20
2018-02-19T14:19:01.374Z,59.13
2018-02-19T14:21:28.128Z,50.07
2018-02-19T14:23:54.891Z,54.97
2018-02-19T14:26:21.686Z,58.37
2018-02-19T14:28:48.445Z,58.83
2018-02-19T14:31:15.289Z,52.00
2018-02-19T14:33:42.063Z,56.23
2018-02-19T14:36:08.841Z,53.00
2018-02-19T14:38:35.599Z,49.17
2018-02-19T14:41:02.357Z,52.17
2018-02-19T14:43:29.709Z,57.17
2018-02-19T14:45:56.481Z,56.10
2018-02-19T14:48:23.880Z,67.30
2018-02-19T14:50:50.644Z,62.93
2018-02-19T14:53:17.391Z,66.30
2018-02-19T14:55:44.186Z,60.23
2018-02-19T14:58:11.672Z,54.40
2018-02-19T15:00:38.527Z,57.03
2018-02-19T15:03:05.287Z,56.17
2018-02-19T15:05:32.066Z,55.00
2018-02-19T15:07:58.878Z,50.53
2018-02-19T15:10:25.645Z,64.67
2018-02-19T15:12:52.428Z,57.53
2018-02-19T15:15:19.188Z,59.27
2018-02-19T15:17:46.059Z,57.47
2018-02-19T15:20:12.849Z,54.47
2018-02-19T15:22:39.611Z,51.10
2018-02-19T15:25:06.345Z,55.60
2018-02-19T15:27:33.087Z,55.60
2018-02-19T15:30:00.111Z,57.67
2018-02-19T15:32:26.919Z,57.33
2018-02-19T15:34:53.705Z,67.63
2018-02-19T15:37:20.451Z,59.93
2018-02-19T15:39:47.532Z,59.03
2018-02-19T15:42:14.272Z,65.33
2018-02-19T15:44:41.073Z,53.87
2018-02-19T15:47:07.841Z,62.37
2018-02-19T15:49:34.619Z,56.97
2018-02-19T15:52:01.389Z,64.00
2018-02-19T15:54:28.164Z,51.77
2018-02-19T15:56:54.973Z,51.10
2018-02-19T15:59:22.383Z,62.87
2018-02-19T16:01:49.186Z,50.27
2018-02-19T16:04:16.739Z,69.93
2018-02-19T16:06:43.548Z,65.20
2018-02-19T16:09:10.393Z,56.83
2018-02-19T16:11:37.193Z,74.67
2018-02-19T16:14:04.032Z,71.17
2018-02-19T16:16:30.796Z,59.30
2018-02-19T16:18:57.617Z,70.27
2018-02-19T16:21:24.393Z,76.13
2018-02-19T16:23:51.481Z,98.30
2018-02-19T16:26:18.222Z,56.20
2018-02-19T16:28:44.982Z,56.20
2018-02-19T16:31:12.027Z,59.30
2018-02-19T16:33:38.833Z,51.30
2018-02-19T16:36:05.587Z,60.27
2018-02-19T16:38:32.363Z,59.87
2018-02-19T16:40:59.120Z,72.30
2018-02-19T16:43:25.899Z,69.53
2018-02-19T16:45:52.654Z,46.00
2018-02-19T16:48:19.406Z,74.17
2018-02-19T16:50:46.178Z,61.23
2018-02-19T16:53:12.945Z,64.37
2018-02-19T16:55:39.698Z,78.53
2018-02-19T16:58:06.454Z,55.87
2018-02-19T17:00:33.234Z,65.80
2018-02-19T17:02:59.982Z,49.27
2018-02-19T17:05:26.730Z,87.97
2018-02-19T17:07:53.762Z,65.50
2018-02-19T17:10:20.525Z,65.57
2018-02-19T17:12:47.284Z,63.40
2018-02-19T17:15:14.042Z,53.83
2018-02-19T17:17:40.830Z,59.50
2018-02-19T17:20:07.642Z,61.73
2018-02-19T17:22:34.457Z,61.70
2018-02-19T17:25:01.227Z,57.83
2018-02-19T17:27:27.993Z,58.90
2018-02-19T17:29:54.958Z,64.73
2018-02-19T17:32:21.766Z,64.53
2018-02-19T17:34:48.566Z,77.13
2018-02-19T17:37:15.340Z,66.83
2018-02-19T17:39:42.147Z,61.57
2018-02-19T17:42:08.929Z,56.53
2018-02-19T17:44:35.787Z,63.07
2018-02-19T17:47:02.574Z,60.47
2018-02-19T17:49:29.337Z,58.37
2018-02-19T17:51:56.140Z,58.77
2018-02-19T17:54:23.666Z,55.73
2018-02-19T17:56:50.654Z,61.27
2018-02-19T17:59:17.399Z,68.00
2018-02-19T18:01:44.187Z,65.27
2018-02-19T18:04:10.945Z,57.63
2018-02-19T18:06:37.703Z,60.70
2018-02-19T18:09:04.565Z,60.00
2018-02-19T18:11:31.315Z,60.20
2018-02-19T18:13:58.074Z,57.10
2018-02-19T18:16:25.248Z,71.23
2018-02-19T18:18:52.054Z,72.70
2018-02-19T18:21:18.877Z,78.93
2018-02-19T18:23:45.860Z,62.37
2018-02-19T18:26:12.638Z,76.30
2018-02-19T18:28:39.419Z,58.73
2018-02-19T18:31:06.195Z,59.53
2018-02-19T18:33:33.002Z,62.97
2018-02-19T18:35:59.782Z,65.10
2018-02-19T18:38:26.543Z,63.40
2018-02-19T18:40:53.321Z,64.67
2018-02-19T18:43:20.105Z,61.10
2018-02-19T18:45:46.934Z,61.80
2018-02-19T18:48:13.699Z,67.53
2018-02-19T18:50:40.492Z,60.97
2018-02-19T18:53:07.269Z,65.47
2018-02-19T18:55:34.037Z,64.80
2018-02-19T18:58:00.823Z,66.60
2018-02-19T19:00:27.591Z,86.00
2018-02-19T19:02:54.528Z,73.73
2018-02-19T19:05:21.304Z,61.73
2018-02-19T19:07:53.914Z,64.60
2018-02-19T19:10:26.596Z,55.53
2018-02-19T19:12:53.649Z,62.00
2018-02-19T19:15:20.498Z,73.33
2018-02-19T19:17:47.274Z,66.70
2018-02-19T19:20:14.045Z,59.90
2018-02-19T19:22:40.844Z,62.60
2018-02-19T19:25:08.281Z,60.93
2018-02-19T19:27:35.352Z,67.53
2018-02-19T19:30:02.405Z,68.73
2018-02-19T19:32:29.279Z,72.37
2018-02-19T19:34:56.083Z,65.77
2018-02-19T19:37:22.863Z,74.23
2018-02-19T19:39:49.650Z,72.53
2018-02-19T19:42:16.417Z,73.47
2018-02-19T19:44:43.173Z,61.00
2018-02-19T19:47:10.097Z,61.83
2018-02-19T19:49:36.869Z,63.57
2018-02-19T19:52:04.046Z,60.17
2018-02-19T19:54:30.827Z,64.27
2018-02-19T19:56:57.588Z,71.67
2018-02-19T19:59:24.387Z,76.20
2018-02-19T20:01:51.152Z,65.97
2018-02-19T20:04:17.891Z,74.63
2018-02-19T20:06:44.670Z,66.23
2018-02-19T20:09:11.474Z,60.73
2018-02-19T20:11:38.465Z,71.67
2018-02-19T20:14:05.258Z,72.47
2018-02-19T20:16:32.030Z,81.17
2018-02-19T20:18:58.908Z,81.43
2018-02-19T20:21:25.736Z,84.47
2018-02-19T20:23:52.523Z,72.80
2018-02-19T20:26:19.304Z,66.03
2018-02-19T20:28:46.078Z,68.53
2018-02-19T20:31:12.837Z,65.60
2018-02-19T20:33:39.631Z,70.67
2018-02-19T20:36:06.446Z,70.77
2018-02-19T20:38:34.046Z,89.23
2018-02-19T20:41:00.818Z,66.97
2018-02-19T20:43:27.864Z,80.63
2018-02-19T20:45:54.623Z,72.17
2018-02-19T20:48:21.498Z,65.10
2018-02-19T20:50:48.287Z,71.10
2018-02-19T20:53:15.159Z,71.27
2018-02-19T20:55:42.555Z,66.00
2018-02-19T20:58:09.351Z,69.53
2018-02-19T21:00:36.177Z,64.17
2018-02-19T21:03:02.996Z,84.50
2018-02-19T21:05:29.826Z,67.23
2018-02-19T21:07:56.629Z,84.37
2018-02-19T21:10:23.412Z,77.07
2018-02-19T21:12:50.227Z,74.53
2018-02-19T21:15:17.156Z,62.10
2018-02-19T21:17:45.437Z,65.00
2018-02-19T21:20:12.230Z,61.30
2018-02-19T21:22:39.675Z,52.53
2018-02-19T21:25:06.522Z,71.83
2018-02-19T21:27:33.283Z,73.10
2018-02-19T21:30:00.121Z,69.50
2018-02-19T21:32:26.873Z,78.63
2018-02-19T21:34:53.673Z,63.87
2018-02-19T21:37:20.489Z,66.23
2018-02-19T21:39:47.270Z,89.03
2018-02-19T21:42:14.064Z,71.00
2018-02-19T21:44:40.835Z,72.17
2018-02-19T21:47:07.613Z,64.17
2018-02-19T21:49:34.435Z,66.00
2018-02-19T21:52:01.210Z,62.43
2018-02-19T21:54:27.989Z,67.30
2018-02-19T21:56:54.748Z,68.17
2018-02-19T21:59:21.519Z,63.50
2018-02-19T22:01:48.330Z,67.57
2018-02-19T22:04:15.154Z,55.33
2018-02-19T22:06:43.989Z,66.47
2018-02-19T22:09:10.881Z,65.90
2018-02-19T22:11:37.666Z,55.57
2018-02-19T22:14:05.086Z,63.67
2018-02-19T22:16:31.983Z,59.97
2018-02-19T22:18:58.770Z,79.87
2018-02-19T22:21:26.323Z,60.97
2018-02-19T22:23:53.102Z,63.20
2018-02-19T22:26:20.121Z,65.27
2018-02-19T22:28:46.906Z,54.93
2018-02-19T22:31:13.662Z,71.33
2018-02-19T22:33:40.440Z,70.90
2018-02-19T22:36:07.206Z,64.03
2018-02-19T22:38:34.742Z,64.80
2018-02-19T22:41:01.507Z,63.10
2018-02-19T22:43:28.282Z,61.17
2018-02-19T22:45:55.134Z,63.50
2018-02-19T22:48:21.910Z,63.20
2018-02-19T22:50:48.708Z,86.57
2018-02-19T22:53:15.481Z,59.70
2018-02-19T22:55:42.234Z,68.87
2018-02-19T22:58:08.993Z,57.63
2018-02-19T23:00:36.425Z,68.33
2018-02-19T23:03:03.251Z,65.90
2018-02-19T23:05:30.027Z,68.03
2018-02-19T23:07:56.776Z,67.00
2018-02-19T23:10:23.535Z,60.60
2018-02-19T23:12:50.307Z,66.60
2018-02-19T23:15:17.094Z,74.73
2018-02-19T23:17:43.860Z,71.50
2018-02-19T23:20:10.642Z,84.30
2018-02-19T23:22:37.415Z,55.87
2018-02-19T23:25:04.171Z,73.60
2018-02-19T23:27:30.960Z,73.83
2018-02-19T23:29:57.754Z,68.93
2018-02-19T23:32:24.511Z,63.63
2018-02-19T23:34:51.296Z,60.10
2018-02-19T23:37:18.064Z,56.43
2018-02-19T23:39:44.860Z,63.00
2018-02-19T23:42:11.839Z,55.50
2018-02-19T23:44:38.616Z,58.87
2018-02-19T23:47:05.382Z,61.37
2018-02-19T23:49:32.898Z,67.87
2018-02-19T23:51:59.695Z,70.10
2018-02-19T23:54:32.248Z,66.13
2018-02-19T23:56:59.058Z,60.97
2018-02-19T23:59:25.840Z,60.40
